createdAt,value
2016-08-23T00:00:01.125Z,93.73
2016-08-23T00:01:01.739Z,94.31
2016-08-23T00:02:02.358Z,93.82
2016-08-23T00:03:02.968Z,93.77
2016-08-23T00:04:03.586Z,93.82
2016-08-23T00:05:04.213Z,93.29
2016-08-23T00:06:04.829Z,92.14
2016-08-23T00:07:05.443Z,92.72
2016-08-23T00:08:06.051Z,93.44
2016-08-23T00:09:06.673Z,92.33
2016-08-23T00:10:07.294Z,91.18
2016-08-23T00:11:07.917Z,91.47
2016-08-23T00:12:08.537Z,92.05
2016-08-23T00:13:09.162Z,92.43
2016-08-23T00:14:09.784Z,92.14
2016-08-23T00:15:10.404Z,90.84
2016-08-23T00:16:11.027Z,90.8
2016-08-23T00:17:11.660Z,92.24
2016-08-23T00:18:12.274Z,93.34
2016-08-23T00:19:12.888Z,93.92
2016-08-23T00:20:13.509Z,93.77
2016-08-23T00:21:14.126Z,94.01
2016-08-23T00:22:14.768Z,94.78
2016-08-23T00:23:15.392Z,95.26
2016-08-23T00:24:16.012Z,94.11
2016-08-23T00:25:16.630Z,94.11
2016-08-23T00:26:17.243Z,94.11
2016-08-23T00:27:17.869Z,95.26
2016-08-23T00:28:18.493Z,93.44
2016-08-23T00:29:19.109Z,94.69
2016-08-23T00:30:19.731Z,94.78
2016-08-23T00:31:20.366Z,95.45
2016-08-23T00:32:20.973Z,95.98
2016-08-23T00:33:21.591Z,96.27
2016-08-23T00:34:22.219Z,96.18
2016-08-23T00:35:22.836Z,96.18
2016-08-23T00:36:23.446Z,95.26
2016-08-23T00:37:24.064Z,94.69
2016-08-23T00:38:24.677Z,93.82
2016-08-23T00:39:25.298Z,93.73
2016-08-23T00:40:25.923Z,92.77
2016-08-23T00:41:26.538Z,91.85
2016-08-23T00:42:27.163Z,92.48
2016-08-23T00:43:27.786Z,93.15
2016-08-23T00:44:28.413Z,92.67
2016-08-23T00:45:29.027Z,92.29
2016-08-23T00:46:29.651Z,92.48
2016-08-23T00:47:30.271Z,93.05
2016-08-23T00:48:30.890Z,93.15
2016-08-23T00:49:31.516Z,92.57
2016-08-23T00:50:32.135Z,91.75
2016-08-23T00:51:32.760Z,94.11
2016-08-23T00:52:33.381Z,94.49
2016-08-23T00:53:34.053Z,95.21
2016-08-23T00:54:34.677Z,93.73
2016-08-23T00:55:35.302Z,92.52
2016-08-23T00:56:35.921Z,92.29
2016-08-23T00:57:36.534Z,92.86
2016-08-23T00:58:37.151Z,91.9
2016-08-23T00:59:37.766Z,91.08
2016-08-23T01:00:38.382Z,91.85
2016-08-23T01:01:39.003Z,92.1
2016-08-23T01:02:39.616Z,93.25
2016-08-23T01:03:40.234Z,91.9
2016-08-23T01:04:40.843Z,92.57
2016-08-23T01:05:41.465Z,93.15
2016-08-23T01:06:42.094Z,92.57
2016-08-23T01:07:42.712Z,92.86
2016-08-23T01:08:43.334Z,92.48
2016-08-23T01:09:43.949Z,92.96
2016-08-23T01:10:44.574Z,93.34
2016-08-23T01:11:45.199Z,93.54
2016-08-23T01:12:45.817Z,92.86
2016-08-23T01:13:46.436Z,92.77
2016-08-23T01:14:47.064Z,92.77
2016-08-23T01:15:47.689Z,92.29
2016-08-23T01:16:48.305Z,92.57
2016-08-23T01:17:48.924Z,92.67
2016-08-23T01:18:49.546Z,92
2016-08-23T01:19:50.179Z,92.1
2016-08-23T01:20:50.799Z,91.37
2016-08-23T01:21:51.421Z,92.1
2016-08-23T01:22:52.044Z,91.33
2016-08-23T01:23:52.666Z,91.23
2016-08-23T01:24:53.329Z,93.73
2016-08-23T01:25:53.948Z,93.44
2016-08-23T01:26:54.573Z,92.57
2016-08-23T01:27:55.193Z,91.08
2016-08-23T01:28:55.810Z,91.08
2016-08-23T01:29:56.440Z,91.71
2016-08-23T01:30:57.058Z,92.38
2016-08-23T01:31:57.686Z,92.19
2016-08-23T01:32:58.305Z,92.1
2016-08-23T01:33:58.926Z,91.81
2016-08-23T01:34:59.544Z,91.9
2016-08-23T01:36:00.165Z,92.19
2016-08-23T01:37:00.782Z,93.25
2016-08-23T01:38:01.404Z,93.49
2016-08-23T01:39:02.025Z,94.83
2016-08-23T01:40:02.644Z,94.54
2016-08-23T01:41:03.267Z,94.16
2016-08-23T01:42:03.886Z,92.38
2016-08-23T01:43:04.523Z,92.29
2016-08-23T01:44:05.145Z,92.77
2016-08-23T01:45:05.772Z,92.48
2016-08-23T01:46:06.381Z,91.04
2016-08-23T01:47:07.042Z,90.84
2016-08-23T01:48:07.663Z,91.33
2016-08-23T01:49:08.282Z,91.9
2016-08-23T01:50:08.908Z,92
2016-08-23T01:51:09.529Z,93.59
2016-08-23T01:52:10.141Z,93.77
2016-08-23T01:53:10.767Z,93.73
2016-08-23T01:54:11.387Z,92.67
2016-08-23T01:55:12.006Z,92.1
2016-08-23T01:56:12.626Z,92.67
2016-08-23T01:57:13.246Z,93.3
2016-08-23T01:58:13.868Z,93.49
2016-08-23T01:59:14.489Z,93.54
2016-08-23T02:00:15.113Z,92.48
2016-08-23T02:01:15.737Z,91.61
2016-08-23T02:02:16.384Z,90.37
2016-08-23T02:03:17.019Z,91.71
2016-08-23T02:04:17.662Z,92.38
2016-08-23T02:05:18.288Z,93.3
2016-08-23T02:06:18.910Z,93.39
2016-08-23T02:07:19.533Z,91.9
2016-08-23T02:08:20.185Z,91.13
2016-08-23T02:09:20.804Z,92.38
2016-08-23T02:10:21.427Z,92.57
2016-08-23T02:11:22.047Z,92.38
2016-08-23T02:12:22.665Z,91.42
2016-08-23T02:13:23.287Z,91.9
2016-08-23T02:14:23.904Z,92.38
2016-08-23T02:15:24.533Z,94.16
2016-08-23T02:16:25.147Z,94.83
2016-08-23T02:17:25.767Z,95.5
2016-08-23T02:18:26.393Z,93.87
2016-08-23T02:19:27.008Z,92.77
2016-08-23T02:20:27.632Z,92.19
2016-08-23T02:21:28.261Z,92
2016-08-23T02:22:28.894Z,92.38
2016-08-23T02:23:29.508Z,91.71
2016-08-23T02:24:30.128Z,91.71
2016-08-23T02:25:30.749Z,91.9
2016-08-23T02:26:31.373Z,92
2016-08-23T02:27:31.993Z,92
2016-08-23T02:28:32.613Z,92.19
2016-08-23T02:29:33.229Z,91.9
2016-08-23T02:30:33.849Z,92.19
2016-08-23T02:31:34.467Z,92.38
2016-08-23T02:32:35.087Z,92.48
2016-08-23T02:33:35.710Z,92.38
2016-08-23T02:34:36.328Z,91.71
2016-08-23T02:35:36.948Z,91.52
2016-08-23T02:36:37.569Z,92.1
2016-08-23T02:37:38.194Z,91.33
2016-08-23T02:38:38.817Z,92.19
2016-08-23T02:39:39.431Z,92
2016-08-23T02:40:40.063Z,92.19
2016-08-23T02:41:40.678Z,92.38
2016-08-23T02:42:41.298Z,92
2016-08-23T02:43:41.924Z,91.71
2016-08-23T02:44:42.538Z,92.14
2016-08-23T02:45:43.158Z,92
2016-08-23T02:46:43.779Z,91.81
2016-08-23T02:47:44.402Z,92.19
2016-08-23T02:48:45.021Z,92.77
2016-08-23T02:49:45.640Z,93.87
2016-08-23T02:50:46.263Z,94.64
2016-08-23T02:51:46.912Z,93.68
2016-08-23T02:52:47.534Z,93.77
2016-08-23T02:53:48.152Z,93.1
2016-08-23T02:54:48.773Z,93.1
2016-08-23T02:55:49.393Z,93.1
2016-08-23T02:56:50.116Z,91.9
2016-08-23T02:57:52.128Z,93.01
2016-08-23T02:58:52.801Z,92.67
2016-08-23T02:59:53.698Z,92
2016-08-23T03:00:54.363Z,92.19
2016-08-23T03:01:55.017Z,92.86
2016-08-23T03:02:56.015Z,92.82
2016-08-23T03:03:57.003Z,92.57
2016-08-23T03:04:58.366Z,92.29
2016-08-23T03:05:59.332Z,92.1
2016-08-23T03:06:59.991Z,91.9
2016-08-23T03:08:00.741Z,92.43
2016-08-23T03:09:01.397Z,92.38
2016-08-23T03:10:02.049Z,91.9
2016-08-23T03:11:02.718Z,92.38
2016-08-23T03:12:03.342Z,92.48
2016-08-23T03:13:04.012Z,92.53
2016-08-23T03:14:04.664Z,92.82
2016-08-23T03:15:05.422Z,93.1
2016-08-23T03:16:06.039Z,92.48
2016-08-23T03:17:06.659Z,92.72
2016-08-23T03:18:07.287Z,92.29
2016-08-23T03:19:07.939Z,92.19
2016-08-23T03:20:08.584Z,92.72
2016-08-23T03:21:09.212Z,91.52
2016-08-23T03:22:09.836Z,93.15
2016-08-23T03:23:10.457Z,93.2
2016-08-23T03:24:11.078Z,92.33
2016-08-23T03:25:11.701Z,92
2016-08-23T03:26:12.324Z,91.71
2016-08-23T03:27:12.946Z,90.27
2016-08-23T03:28:13.569Z,90.75
2016-08-23T03:29:14.205Z,91.71
2016-08-23T03:30:14.822Z,92.19
2016-08-23T03:31:15.450Z,92.19
2016-08-23T03:32:16.073Z,92.82
2016-08-23T03:33:16.706Z,92.53
2016-08-23T03:34:17.322Z,92.57
2016-08-23T03:35:17.950Z,92.29
2016-08-23T03:36:18.561Z,93.68
2016-08-23T03:37:19.197Z,94.35
2016-08-23T03:38:19.806Z,94.74
2016-08-23T03:39:20.442Z,92.38
2016-08-23T03:40:21.063Z,92.67
2016-08-23T03:41:21.697Z,93.39
2016-08-23T03:42:22.330Z,93.59
2016-08-23T03:43:22.963Z,92.82
2016-08-23T03:44:23.587Z,93.3
2016-08-23T03:45:24.211Z,93.01
2016-08-23T03:46:24.837Z,93.39
2016-08-23T03:47:25.452Z,93.44
2016-08-23T03:48:26.069Z,93.39
2016-08-23T03:49:26.692Z,93.44
2016-08-23T03:50:27.313Z,93.15
2016-08-23T03:51:27.937Z,93.2
2016-08-23T03:52:28.557Z,93.77
2016-08-23T03:53:29.176Z,92.86
2016-08-23T03:54:29.797Z,92.77
2016-08-23T03:55:30.420Z,93.3
2016-08-23T03:56:31.038Z,94.16
2016-08-23T03:57:31.693Z,92.48
2016-08-23T03:58:32.321Z,92.29
2016-08-23T03:59:32.947Z,91.81
2016-08-23T04:00:33.565Z,90.8
2016-08-23T04:01:34.185Z,90.66
2016-08-23T04:02:34.807Z,91.33
2016-08-23T04:03:35.426Z,91.52
2016-08-23T04:04:36.065Z,91.23
2016-08-23T04:05:36.681Z,92
2016-08-23T04:06:37.301Z,92.19
2016-08-23T04:07:37.918Z,92.38
2016-08-23T04:08:38.539Z,91.9
2016-08-23T04:09:39.161Z,92.77
2016-08-23T04:10:39.782Z,93.25
2016-08-23T04:11:40.407Z,93.54
2016-08-23T04:12:41.025Z,92.67
2016-08-23T04:13:41.645Z,93.05
2016-08-23T04:14:42.272Z,92.38
2016-08-23T04:15:42.884Z,92.19
2016-08-23T04:16:43.509Z,92.38
2016-08-23T04:17:44.127Z,92.57
2016-08-23T04:18:44.755Z,92.86
2016-08-23T04:19:45.371Z,93.05
2016-08-23T04:20:45.987Z,94.35
2016-08-23T04:21:46.613Z,94.16
2016-08-23T04:22:47.232Z,93.34
2016-08-23T04:23:47.854Z,92.57
2016-08-23T04:24:48.475Z,92.1
2016-08-23T04:25:49.094Z,93.49
2016-08-23T04:26:49.719Z,92.96
2016-08-23T04:27:50.351Z,93.73
2016-08-23T04:28:50.972Z,92.77
2016-08-23T04:29:51.593Z,93.44
2016-08-23T04:30:52.220Z,93.87
2016-08-23T04:31:52.836Z,93.25
2016-08-23T04:32:53.460Z,93.15
2016-08-23T04:33:54.078Z,93.05
2016-08-23T04:34:54.702Z,92.57
2016-08-23T04:35:55.322Z,92.96
2016-08-23T04:36:55.965Z,92.1
2016-08-23T04:37:56.603Z,92.57
2016-08-23T04:38:57.239Z,93.05
2016-08-23T04:39:57.856Z,91.9
2016-08-23T04:40:58.488Z,91.9
2016-08-23T04:41:59.143Z,92.38
2016-08-23T04:42:59.776Z,92.57
2016-08-23T04:44:00.394Z,92.48
2016-08-23T04:45:01.007Z,92.48
2016-08-23T04:46:01.626Z,92
2016-08-23T04:47:02.251Z,92.86
2016-08-23T04:48:02.890Z,93.05
2016-08-23T04:49:03.517Z,93.05
2016-08-23T04:50:04.147Z,94.35
2016-08-23T04:51:04.761Z,94.83
2016-08-23T04:52:05.373Z,94.59
2016-08-23T04:53:05.993Z,94.21
2016-08-23T04:54:06.615Z,94.01
2016-08-23T04:55:07.242Z,93.73
2016-08-23T04:56:07.867Z,94.74
2016-08-23T04:57:08.491Z,94.74
2016-08-23T04:58:09.112Z,94.74
2016-08-23T04:59:09.731Z,93.82
2016-08-23T05:00:10.358Z,94.45
2016-08-23T05:01:10.968Z,94.88
2016-08-23T05:02:11.587Z,94.98
2016-08-23T05:03:12.202Z,93.44
2016-08-23T05:04:12.826Z,93.34
2016-08-23T05:05:13.454Z,94.98
2016-08-23T05:06:14.073Z,94.01
2016-08-23T05:07:14.693Z,93.92
2016-08-23T05:08:15.307Z,94.88
2016-08-23T05:09:15.929Z,94.21
2016-08-23T05:10:16.555Z,94.59
2016-08-23T05:11:17.172Z,94.21
2016-08-23T05:12:17.799Z,94.21
2016-08-23T05:13:18.430Z,94.31
2016-08-23T05:14:19.035Z,95.7
2016-08-23T05:15:19.656Z,95.45
2016-08-23T05:16:20.280Z,94.88
2016-08-23T05:17:20.907Z,94.88
2016-08-23T05:18:21.525Z,94.4
2016-08-23T05:19:22.175Z,94.31
2016-08-23T05:20:22.798Z,93.92
2016-08-23T05:21:23.418Z,95.26
2016-08-23T05:22:24.052Z,95.36
2016-08-23T05:23:24.695Z,94.49
2016-08-23T05:24:25.321Z,94.59
2016-08-23T05:25:25.942Z,94.49
2016-08-23T05:26:26.569Z,94.11
2016-08-23T05:27:27.188Z,94.11
2016-08-23T05:28:27.807Z,94.11
2016-08-23T05:29:28.435Z,94.31
2016-08-23T05:30:29.060Z,93.92
2016-08-23T05:31:29.688Z,93.92
2016-08-23T05:32:30.306Z,94.21
2016-08-23T05:33:30.931Z,93.34
2016-08-23T05:34:31.544Z,93.34
2016-08-23T05:35:32.166Z,94.11
2016-08-23T05:36:32.785Z,93.54
2016-08-23T05:37:33.414Z,93.01
2016-08-23T05:38:34.028Z,93.34
2016-08-23T05:39:34.652Z,94.01
2016-08-23T05:40:35.271Z,94.11
2016-08-23T05:41:35.894Z,93.82
2016-08-23T05:42:36.516Z,93.73
2016-08-23T05:43:37.127Z,93.39
2016-08-23T05:44:37.749Z,92.33
2016-08-23T05:45:38.376Z,93.44
2016-08-23T05:46:38.999Z,94.4
2016-08-23T05:47:39.632Z,93.58
2016-08-23T05:48:40.253Z,93.77
2016-08-23T05:49:40.890Z,93.44
2016-08-23T05:50:41.521Z,93.92
2016-08-23T05:51:42.159Z,93.92
2016-08-23T05:52:42.781Z,93.77
2016-08-23T05:53:43.401Z,93.29
2016-08-23T05:54:44.021Z,93.49
2016-08-23T05:55:44.641Z,94.06
2016-08-23T05:56:45.269Z,94.16
2016-08-23T05:57:45.888Z,94.35
2016-08-23T05:58:46.510Z,93.29
2016-08-23T05:59:47.124Z,93.29
2016-08-23T06:00:47.754Z,93.29
2016-08-23T06:01:48.376Z,93.63
2016-08-23T06:02:48.989Z,93.58
2016-08-23T06:03:49.618Z,93.58
2016-08-23T06:04:50.238Z,93.77
2016-08-23T06:05:50.861Z,93.58
2016-08-23T06:06:51.483Z,94.11
2016-08-23T06:07:52.103Z,94.21
2016-08-23T06:08:52.727Z,93.58
2016-08-23T06:09:53.346Z,93.77
2016-08-23T06:10:53.967Z,93.87
2016-08-23T06:11:54.599Z,93.49
2016-08-23T06:12:55.223Z,92.62
2016-08-23T06:13:55.852Z,93.19
2016-08-23T06:14:56.473Z,93.49
2016-08-23T06:15:57.096Z,93.29
2016-08-23T06:16:57.708Z,92.81
2016-08-23T06:17:58.339Z,93.77
2016-08-23T06:18:58.956Z,94.64
2016-08-23T06:19:59.576Z,93.19
2016-08-23T06:21:00.201Z,92.81
2016-08-23T06:22:00.939Z,92.62
2016-08-23T06:23:01.551Z,93.49
2016-08-23T06:24:02.170Z,93.49
2016-08-23T06:25:02.786Z,93.49
2016-08-23T06:26:03.408Z,93.39
2016-08-23T06:27:04.028Z,92.72
2016-08-23T06:28:04.664Z,92.29
2016-08-23T06:29:05.283Z,92.62
2016-08-23T06:30:05.926Z,92.86
2016-08-23T06:31:06.543Z,93.01
2016-08-23T06:32:07.165Z,92.29
2016-08-23T06:33:07.794Z,92.19
2016-08-23T06:34:08.421Z,92.47
2016-08-23T06:35:09.056Z,92.19
2016-08-23T06:36:09.678Z,91.99
2016-08-23T06:37:10.416Z,92.47
2016-08-23T06:38:11.034Z,92.33
2016-08-23T06:39:11.667Z,91.52
2016-08-23T06:40:12.284Z,92.47
2016-08-23T06:41:12.905Z,91.9
2016-08-23T06:42:13.527Z,91.61
2016-08-23T06:43:14.155Z,91.8
2016-08-23T06:44:14.800Z,92.47
2016-08-23T06:45:15.421Z,93.77
2016-08-23T06:46:16.055Z,93.34
2016-08-23T06:47:16.682Z,91.42
2016-08-23T06:48:17.300Z,92.19
2016-08-23T06:49:17.921Z,92.47
2016-08-23T06:50:18.557Z,92.57
2016-08-23T06:51:19.207Z,92.57
2016-08-23T06:52:19.845Z,92.29
2016-08-23T06:53:20.468Z,91.42
2016-08-23T06:54:21.087Z,91.61
2016-08-23T06:55:21.709Z,91.42
2016-08-23T06:56:22.331Z,90.75
2016-08-23T06:57:22.950Z,91.13
2016-08-23T06:58:23.590Z,90.59
2016-08-23T06:59:24.207Z,91.36
2016-08-23T07:00:24.838Z,90.98
2016-08-23T07:01:25.467Z,91.56
2016-08-23T07:02:26.103Z,90.79
2016-08-23T07:03:26.742Z,90.79
2016-08-23T07:04:27.361Z,90.79
2016-08-23T07:05:27.989Z,90.79
2016-08-23T07:06:28.602Z,90.89
2016-08-23T07:07:29.224Z,90.69
2016-08-23T07:08:29.865Z,90.41
2016-08-23T07:09:30.501Z,89.83
2016-08-23T07:10:31.142Z,90.59
2016-08-23T07:11:31.766Z,89.78
2016-08-23T07:12:32.385Z,89.58
2016-08-23T07:13:33.003Z,89.39
2016-08-23T07:14:33.627Z,88.71
2016-08-23T07:15:34.250Z,88.62
2016-08-23T07:16:34.870Z,87.66
2016-08-23T07:17:35.490Z,87.7
2016-08-23T07:18:36.114Z,88.53
2016-08-23T07:19:36.737Z,87.32
2016-08-23T07:20:37.360Z,87.32
2016-08-23T07:21:37.981Z,87.22
2016-08-23T07:22:38.617Z,86.83
2016-08-23T07:23:39.259Z,87.03
2016-08-23T07:24:39.893Z,86.26
2016-08-23T07:25:40.505Z,87.41
2016-08-23T07:26:41.123Z,87.51
2016-08-23T07:27:41.759Z,87.22
2016-08-23T07:28:42.382Z,87.99
2016-08-23T07:29:43.012Z,87.22
2016-08-23T07:30:43.624Z,87.32
2016-08-23T07:31:44.254Z,87.22
2016-08-23T07:32:44.870Z,87.12
2016-08-23T07:33:45.488Z,87.8
2016-08-23T07:34:46.109Z,87.22
2016-08-23T07:35:46.734Z,87.22
2016-08-23T07:36:47.368Z,87.12
2016-08-23T07:37:47.980Z,87.22
2016-08-23T07:38:48.600Z,86.93
2016-08-23T07:39:49.221Z,87.22
2016-08-23T07:40:49.856Z,86.26
2016-08-23T07:41:50.486Z,87.03
2016-08-23T07:42:51.117Z,87.7
2016-08-23T07:43:51.773Z,87.51
2016-08-23T07:44:52.392Z,88.09
2016-08-23T07:45:53.011Z,87.7
2016-08-23T07:46:53.643Z,87.41
2016-08-23T07:47:54.265Z,87.22
2016-08-23T07:48:54.885Z,86.93
2016-08-23T07:49:55.508Z,87.18
2016-08-23T07:50:56.130Z,87.66
2016-08-23T07:51:56.753Z,87.51
2016-08-23T07:52:57.376Z,88.09
2016-08-23T07:53:57.995Z,86.79
2016-08-23T07:54:58.617Z,86.55
2016-08-23T07:55:59.249Z,86.93
2016-08-23T07:56:59.875Z,87.56
2016-08-23T07:58:00.502Z,86.65
2016-08-23T07:59:01.132Z,86.07
2016-08-23T08:00:01.754Z,86.74
2016-08-23T08:01:02.381Z,87.32
2016-08-23T08:02:03.047Z,86.45
2016-08-23T08:03:03.669Z,86.93
2016-08-23T08:04:04.303Z,87.32
2016-08-23T08:05:04.925Z,86.65
2016-08-23T08:06:05.686Z,86.65
2016-08-23T08:07:06.442Z,86.83
2016-08-23T08:08:07.634Z,86.07
2016-08-23T08:09:08.274Z,85.2
2016-08-23T08:10:08.898Z,85.43
2016-08-23T08:11:09.535Z,84.33
2016-08-23T08:12:10.154Z,85.05
2016-08-23T08:13:10.768Z,86.16
2016-08-23T08:14:11.396Z,86.07
2016-08-23T08:15:12.021Z,86.21
2016-08-23T08:16:12.700Z,85.87
2016-08-23T08:17:13.324Z,85.97
2016-08-23T08:18:13.947Z,84.81
2016-08-23T08:19:14.574Z,84.66
2016-08-23T08:20:15.195Z,85.72
2016-08-23T08:21:15.816Z,84.38
2016-08-23T08:22:16.439Z,84.47
2016-08-23T08:23:17.088Z,84.91
2016-08-23T08:24:17.711Z,85.53
2016-08-23T08:25:18.334Z,85.82
2016-08-23T08:26:18.963Z,85
2016-08-23T08:27:19.602Z,86.21
2016-08-23T08:28:20.230Z,84.91
2016-08-23T08:29:20.859Z,84.76
2016-08-23T08:30:21.486Z,83.99
2016-08-23T08:31:22.114Z,84.86
2016-08-23T08:32:22.735Z,84.28
2016-08-23T08:33:23.355Z,83.99
2016-08-23T08:34:23.976Z,85.14
2016-08-23T08:35:24.599Z,84.86
2016-08-23T08:36:25.223Z,84.28
2016-08-23T08:37:25.928Z,83.89
2016-08-23T08:38:26.552Z,83.41
2016-08-23T08:39:27.176Z,83.51
2016-08-23T08:40:27.806Z,83.7
2016-08-23T08:41:28.430Z,82.83
2016-08-23T08:42:29.058Z,83.51
2016-08-23T08:43:29.685Z,84.18
2016-08-23T08:44:30.305Z,83.8
2016-08-23T08:45:30.925Z,85.34
2016-08-23T08:46:31.560Z,84.38
2016-08-23T08:47:32.202Z,83.61
2016-08-23T08:48:32.825Z,83.31
2016-08-23T08:49:33.446Z,84.47
2016-08-23T08:50:34.069Z,84.47
2016-08-23T08:51:34.696Z,84.09
2016-08-23T08:52:35.314Z,83.61
2016-08-23T08:53:35.934Z,83.31
2016-08-23T08:54:36.554Z,81.87
2016-08-23T08:55:37.178Z,81.04
2016-08-23T08:56:37.801Z,82.2
2016-08-23T08:57:38.428Z,83.12
2016-08-23T08:58:39.046Z,83.31
2016-08-23T08:59:39.670Z,83.51
2016-08-23T09:00:40.293Z,82.06
2016-08-23T09:01:40.909Z,81.91
2016-08-23T09:02:41.528Z,80.94
2016-08-23T09:03:42.159Z,81.81
2016-08-23T09:04:42.770Z,80.66
2016-08-23T09:05:43.391Z,79.98
2016-08-23T09:06:44.015Z,79.6
2016-08-23T09:07:44.641Z,80.18
2016-08-23T09:08:45.256Z,80.66
2016-08-23T09:09:45.880Z,82.1
2016-08-23T09:10:46.504Z,81.04
2016-08-23T09:11:47.148Z,81.43
2016-08-23T09:12:47.767Z,82.54
2016-08-23T09:13:48.390Z,82.83
2016-08-23T09:14:49.018Z,83.36
2016-08-23T09:15:49.630Z,80.46
2016-08-23T09:16:50.252Z,80.66
2016-08-23T09:17:50.874Z,81.24
2016-08-23T09:18:51.497Z,80.22
2016-08-23T09:19:52.127Z,79.44
2016-08-23T09:20:52.742Z,80.99
2016-08-23T09:21:53.365Z,79.54
2016-08-23T09:22:53.985Z,78.86
2016-08-23T09:23:54.626Z,79.93
2016-08-23T09:24:55.246Z,79.25
2016-08-23T09:25:55.869Z,78.38
2016-08-23T09:26:56.489Z,77.9
2016-08-23T09:27:57.119Z,79.83
2016-08-23T09:28:57.763Z,79.64
2016-08-23T09:29:58.386Z,78.19
2016-08-23T09:30:59.008Z,78.58
2016-08-23T09:31:59.630Z,79.35
2016-08-23T09:33:00.258Z,78.33
2016-08-23T09:34:00.903Z,78
2016-08-23T09:35:01.528Z,78.13
2016-08-23T09:36:02.150Z,77.55
2016-08-23T09:37:02.776Z,78
2016-08-23T09:38:03.453Z,78.09
2016-08-23T09:39:04.084Z,78.38
2016-08-23T09:40:04.718Z,78.58
2016-08-23T09:41:05.331Z,79.74
2016-08-23T09:42:05.957Z,80.12
2016-08-23T09:43:06.601Z,81.33
2016-08-23T09:44:07.226Z,80.46
2016-08-23T09:45:07.864Z,80.56
2016-08-23T09:46:08.503Z,80.08
2016-08-23T09:47:09.143Z,79.69
2016-08-23T09:48:09.772Z,80.18
2016-08-23T09:49:10.401Z,79.69
2016-08-23T09:50:11.020Z,79.83
2016-08-23T09:51:11.638Z,80.18
2016-08-23T09:52:12.254Z,80.27
2016-08-23T09:53:12.876Z,80.94
2016-08-23T09:54:13.499Z,80.85
2016-08-23T09:55:14.122Z,80.56
2016-08-23T09:56:14.742Z,80.76
2016-08-23T09:57:15.370Z,81.14
2016-08-23T09:58:16.004Z,80.66
2016-08-23T09:59:16.629Z,80.18
2016-08-23T10:00:17.253Z,80.85
2016-08-23T10:01:17.885Z,80.94
2016-08-23T10:02:18.506Z,80.37
2016-08-23T10:03:19.147Z,81.14
2016-08-23T10:04:19.774Z,81.04
2016-08-23T10:05:20.393Z,80.18
2016-08-23T10:06:21.019Z,80.66
2016-08-23T10:07:21.644Z,80.46
2016-08-23T10:08:22.273Z,79.35
2016-08-23T10:09:22.908Z,79.93
2016-08-23T10:10:23.533Z,80.02
2016-08-23T10:11:24.159Z,79.25
2016-08-23T10:12:24.780Z,78.67
2016-08-23T10:13:25.399Z,78.77
2016-08-23T10:14:26.053Z,78.48
2016-08-23T10:15:26.675Z,78.48
2016-08-23T10:16:27.304Z,78.48
2016-08-23T10:17:27.925Z,77.46
2016-08-23T10:18:28.564Z,77.42
2016-08-23T10:19:29.186Z,77.17
2016-08-23T10:20:29.805Z,76.59
2016-08-23T10:21:30.430Z,78.42
2016-08-23T10:22:31.051Z,79.64
2016-08-23T10:23:31.682Z,80.02
2016-08-23T10:24:32.334Z,78.38
2016-08-23T10:25:32.960Z,78.19
2016-08-23T10:26:33.580Z,77.33
2016-08-23T10:27:34.201Z,77.17
2016-08-23T10:28:34.830Z,76.88
2016-08-23T10:29:35.454Z,76.88
2016-08-23T10:30:36.073Z,77.26
2016-08-23T10:31:36.700Z,78.03
2016-08-23T10:32:37.407Z,78.71
2016-08-23T10:33:38.030Z,78
2016-08-23T10:34:38.654Z,78.23
2016-08-23T10:35:39.280Z,77.46
2016-08-23T10:36:39.903Z,78.42
2016-08-23T10:37:40.525Z,78.48
2016-08-23T10:38:41.166Z,78.91
2016-08-23T10:39:41.862Z,78.91
2016-08-23T10:40:42.489Z,78.33
2016-08-23T10:41:43.108Z,76.98
2016-08-23T10:42:43.777Z,76.78
2016-08-23T10:43:44.406Z,76.78
2016-08-23T10:44:45.032Z,77.55
2016-08-23T10:45:45.651Z,76.88
2016-08-23T10:46:46.320Z,77.07
2016-08-23T10:47:46.945Z,76.59
2016-08-23T10:48:47.565Z,75.85
2016-08-23T10:49:48.202Z,75.62
2016-08-23T10:50:48.890Z,76.5
2016-08-23T10:51:49.518Z,77.84
2016-08-23T10:52:50.212Z,77.36
2016-08-23T10:53:50.947Z,77.36
2016-08-23T10:54:51.592Z,77.11
2016-08-23T10:55:52.210Z,76.24
2016-08-23T10:56:52.833Z,76.82
2016-08-23T10:57:53.466Z,76.43
2016-08-23T10:58:54.087Z,74.99
2016-08-23T10:59:54.706Z,75.62
2016-08-23T11:00:55.328Z,75.85
2016-08-23T11:01:55.953Z,76.98
2016-08-23T11:02:56.596Z,77.01
2016-08-23T11:03:57.229Z,76.82
2016-08-23T11:04:57.850Z,75.85
2016-08-23T11:05:58.477Z,76.68
2016-08-23T11:06:59.099Z,77.17
2016-08-23T11:07:59.762Z,77.36
2016-08-23T11:09:00.381Z,77.46
2016-08-23T11:10:01.004Z,77.46
2016-08-23T11:11:01.632Z,76.88
2016-08-23T11:12:02.259Z,77.9
2016-08-23T11:13:02.933Z,78.23
2016-08-23T11:14:03.556Z,78.38
2016-08-23T11:15:04.214Z,78.03
2016-08-23T11:16:04.848Z,77.84
2016-08-23T11:17:05.486Z,78.23
2016-08-23T11:18:06.160Z,77.65
2016-08-23T11:19:06.830Z,78.23
2016-08-23T11:20:07.890Z,78.13
2016-08-23T11:21:08.510Z,78.03
2016-08-23T11:22:09.136Z,78.23
2016-08-23T11:23:09.798Z,77.01
2016-08-23T11:24:10.587Z,76.15
2016-08-23T11:25:11.237Z,76.24
2016-08-23T11:26:11.870Z,76.24
2016-08-23T11:27:12.495Z,77.21
2016-08-23T11:28:13.174Z,76.05
2016-08-23T11:29:13.793Z,76.15
2016-08-23T11:30:14.448Z,75.95
2016-08-23T11:31:15.107Z,75.76
2016-08-23T11:32:15.749Z,77.01
2016-08-23T11:33:16.387Z,76.63
2016-08-23T11:34:17.019Z,76.72
2016-08-23T11:35:17.656Z,76.72
2016-08-23T11:36:18.324Z,76.24
2016-08-23T11:37:18.964Z,76.53
2016-08-23T11:38:20.496Z,76.34
2016-08-23T11:39:21.121Z,74.6
2016-08-23T11:40:21.761Z,75.67
2016-08-23T11:41:22.372Z,75.47
2016-08-23T11:42:23.006Z,74.79
2016-08-23T11:43:23.630Z,75.37
2016-08-23T11:44:24.246Z,76.43
2016-08-23T11:45:25.099Z,76.2
2016-08-23T11:46:25.718Z,75.76
2016-08-23T11:47:26.340Z,76.72
2016-08-23T11:48:26.962Z,76.05
2016-08-23T11:49:27.579Z,76.53
2016-08-23T11:50:28.197Z,70.84
2016-08-23T11:51:28.827Z,73.6
2016-08-23T11:52:29.447Z,64.4
2016-08-23T11:53:30.066Z,67.49
2016-08-23T11:54:30.693Z,69.88
2016-08-23T11:55:31.337Z,71.97
2016-08-23T11:56:31.969Z,72.03
2016-08-23T11:57:32.602Z,72.8
2016-08-23T11:58:33.231Z,73
2016-08-23T11:59:33.895Z,73
2016-08-23T12:00:36.270Z,73.58
2016-08-23T12:01:36.935Z,73.09
2016-08-23T12:02:37.721Z,73.19
2016-08-23T12:03:38.403Z,74.16
2016-08-23T12:04:39.142Z,73.19
2016-08-23T12:05:39.781Z,73
2016-08-23T12:06:40.400Z,73.19
2016-08-23T12:07:41.070Z,73.67
2016-08-23T12:08:41.734Z,73.19
2016-08-23T12:09:42.384Z,74.35
2016-08-23T12:10:43.037Z,74.35
2016-08-23T12:11:43.658Z,74.16
2016-08-23T12:12:44.276Z,74.35
2016-08-23T12:13:44.902Z,74.35
2016-08-23T12:14:45.524Z,73.67
2016-08-23T12:15:46.144Z,74.64
2016-08-23T12:16:46.767Z,73.86
2016-08-23T12:17:47.392Z,74.25
2016-08-23T12:18:48.025Z,75.6
2016-08-23T12:19:48.657Z,74.25
2016-08-23T12:20:49.292Z,75.6
2016-08-23T12:21:49.925Z,74.44
2016-08-23T12:22:50.787Z,74.64
2016-08-23T12:23:51.684Z,74.25
2016-08-23T12:24:52.328Z,74.16
2016-08-23T12:25:52.968Z,74.06
2016-08-23T12:26:53.725Z,74.02
2016-08-23T12:27:54.401Z,74.35
2016-08-23T12:28:55.069Z,74.12
2016-08-23T12:29:55.752Z,74.79
2016-08-23T12:30:56.399Z,74.99
2016-08-23T12:31:57.023Z,75.09
2016-08-23T12:32:57.638Z,74.89
2016-08-23T12:33:58.264Z,74.31
2016-08-23T12:34:58.889Z,74.99
2016-08-23T12:35:59.542Z,74.6
2016-08-23T12:37:00.178Z,74.41
2016-08-23T12:38:00.800Z,74.06
2016-08-23T12:39:01.423Z,74.25
2016-08-23T12:40:02.041Z,74.89
2016-08-23T12:41:02.662Z,75.09
2016-08-23T12:42:03.280Z,75.85
2016-08-23T12:43:03.904Z,75.57
2016-08-23T12:44:04.557Z,75.27
2016-08-23T12:45:05.171Z,75.37
2016-08-23T12:46:07.052Z,75.85
2016-08-23T12:47:08.085Z,74.89
2016-08-23T12:48:09.002Z,75.85
2016-08-23T12:49:10.291Z,76.72
2016-08-23T12:50:12.124Z,75.57
2016-08-23T12:51:13.523Z,74.73
2016-08-23T12:52:15.063Z,74.16
2016-08-23T12:53:15.246Z,75.7
2016-08-23T12:54:17.207Z,74.44
2016-08-23T12:55:18.578Z,75.6
2016-08-23T12:56:19.019Z,74.83
2016-08-23T12:57:21.253Z,74.16
2016-08-23T12:58:21.852Z,74.83
2016-08-23T12:59:23.181Z,74.06
2016-08-23T13:00:23.977Z,73.86
2016-08-23T13:01:25.559Z,73.67
2016-08-23T13:02:27.098Z,73.86
2016-08-23T13:03:29.035Z,73.86
2016-08-23T13:04:30.021Z,73.28